createdAt,value
2018-09-04T00:00:30.171Z,3.43
2018-09-04T05:02:09.034Z,3.00
2018-09-04T05:04:37.230Z,3.83
2018-09-04T05:07:05.428Z,3.23
2018-09-04T05:09:33.631Z,4.00
2018-09-04T05:12:01.840Z,4.37
2018-09-04T05:14:31.120Z,4.67
2018-09-04T05:16:59.319Z,4.13
2018-09-04T05:19:27.508Z,4.80
2018-09-04T05:21:55.750Z,4.93
2018-09-04T05:24:24.025Z,3.80
2018-09-04T05:26:52.220Z,4.03
2018-09-04T05:29:20.459Z,3.67
2018-09-04T05:31:53.290Z,4.40
2018-09-04T05:34:23.235Z,3.70
2018-09-04T05:36:51.543Z,4.97
2018-09-04T05:39:19.667Z,4.20
2018-09-04T05:41:48.044Z,3.30
2018-09-04T05:44:16.295Z,3.57
2018-09-04T05:46:47.596Z,2.73
2018-09-04T05:49:18.281Z,3.70
2018-09-04T05:51:46.464Z,4.10
2018-09-04T05:54:14.661Z,3.00
2018-09-04T05:56:42.871Z,3.97
2018-09-04T05:59:11.980Z,4.53
2018-09-04T06:01:40.372Z,4.43
2018-09-04T06:04:08.566Z,4.40
2018-09-04T06:06:36.807Z,4.77
2018-09-04T06:09:05.711Z,3.50
2018-09-04T06:11:33.971Z,3.87
2018-09-04T06:14:02.296Z,3.90
2018-09-04T06:16:30.532Z,3.70
2018-09-04T06:18:58.758Z,3.70
2018-09-04T06:21:26.982Z,3.53
2018-09-04T06:23:55.218Z,4.23
2018-09-04T06:26:23.449Z,3.60
2018-09-04T06:28:51.655Z,4.53
2018-09-04T06:31:19.857Z,4.33
2018-09-04T06:33:48.073Z,3.23
2018-09-04T06:36:16.248Z,4.63
2018-09-04T06:38:45.526Z,3.63
2018-09-04T06:41:13.718Z,3.43
2018-09-04T06:43:41.951Z,4.20
2018-09-04T06:46:10.140Z,3.87
2018-09-04T06:48:38.361Z,3.80
2018-09-04T06:51:06.631Z,3.73
2018-09-04T06:53:34.880Z,3.03
2018-09-04T06:56:03.089Z,4.00
2018-09-04T06:58:31.287Z,4.00
2018-09-04T07:00:59.609Z,3.43
2018-09-04T07:03:28.914Z,3.40
2018-09-04T07:05:57.133Z,3.97
2018-09-04T07:08:25.360Z,4.23
2018-09-04T07:10:53.624Z,4.40
2018-09-04T07:13:21.938Z,3.63
2018-09-04T07:15:50.177Z,3.30
2018-09-04T07:18:18.372Z,3.20
2018-09-04T07:20:46.649Z,3.17
2018-09-04T07:23:14.867Z,3.67
2018-09-04T07:25:43.087Z,3.80
2018-09-04T07:28:11.278Z,3.57
2018-09-04T07:30:39.503Z,3.50
2018-09-04T07:33:08.696Z,3.07
2018-09-04T07:35:38.544Z,3.00
2018-09-04T07:38:06.860Z,3.87
2018-09-04T07:40:35.056Z,4.50
2018-09-04T07:43:03.312Z,3.40
2018-09-04T07:45:31.557Z,3.53
2018-09-04T07:47:59.812Z,2.80
2018-09-04T07:50:28.108Z,2.67
2018-09-04T07:52:56.367Z,3.13
2018-09-04T07:55:24.681Z,3.43
2018-09-04T07:57:52.926Z,3.47
2018-09-04T08:00:21.207Z,3.33
2018-09-04T08:02:49.491Z,3.90
2018-09-04T08:05:17.812Z,2.93
2018-09-04T08:07:46.177Z,3.23
2018-09-04T08:10:14.532Z,4.13
2018-09-04T08:12:42.723Z,4.00
2018-09-04T08:15:12.123Z,3.80
2018-09-04T08:17:40.327Z,3.87
2018-09-04T08:20:08.529Z,4.17
2018-09-04T08:22:36.772Z,3.97
2018-09-04T08:25:04.952Z,4.23
2018-09-04T08:27:33.157Z,4.20
2018-09-04T08:30:01.412Z,3.63
2018-09-04T08:32:29.619Z,3.77
2018-09-04T08:34:57.795Z,4.63
2018-09-04T08:37:26.012Z,4.40
2018-09-04T08:39:54.248Z,4.63
2018-09-04T08:42:22.384Z,3.40
2018-09-04T08:44:50.732Z,3.83
2018-09-04T08:47:19.341Z,4.20
2018-09-04T08:49:47.560Z,4.40
2018-09-04T08:52:15.940Z,4.03
2018-09-04T08:54:44.149Z,4.37
2018-09-04T08:57:12.384Z,4.10
2018-09-04T08:59:40.648Z,3.93
2018-09-04T09:02:12.210Z,4.00
2018-09-04T09:04:40.415Z,5.70
2018-09-04T09:07:08.686Z,4.43
2018-09-04T09:09:36.936Z,5.47
2018-09-04T09:12:05.164Z,3.90
2018-09-04T09:14:33.356Z,3.97
2018-09-04T09:17:01.580Z,5.13
2018-09-04T09:19:29.828Z,4.87
2018-09-04T09:21:58.079Z,4.10
2018-09-04T09:24:26.323Z,3.83
2018-09-04T09:26:54.640Z,4.00
2018-09-04T09:29:22.952Z,3.93
2018-09-04T09:31:51.143Z,5.00
2018-09-04T09:34:20.317Z,4.33
2018-09-04T09:36:48.606Z,4.83
2018-09-04T09:39:16.800Z,4.03
2018-09-04T09:41:45.046Z,3.67
2018-09-04T09:44:13.264Z,3.47
2018-09-04T09:46:41.523Z,4.20
2018-09-04T09:49:09.757Z,4.73
2018-09-04T09:51:38.115Z,3.87
2018-09-04T09:54:06.622Z,3.70
2018-09-04T09:56:34.824Z,3.67
2018-09-04T09:59:03.129Z,3.10
2018-09-04T10:01:35.711Z,3.40
2018-09-04T10:04:05.713Z,3.87
2018-09-04T10:06:33.881Z,4.37
2018-09-04T10:09:02.179Z,3.47
2018-09-04T10:11:30.456Z,2.80
2018-09-04T10:13:58.724Z,3.30
2018-09-04T10:16:26.919Z,3.30
2018-09-04T10:18:55.159Z,3.30
2018-09-04T10:21:23.458Z,2.70
2018-09-04T10:23:53.101Z,3.67
2018-09-04T10:26:23.070Z,3.90
2018-09-04T10:28:51.260Z,4.10
2018-09-04T10:31:19.491Z,3.43
2018-09-04T10:33:47.733Z,3.50
2018-09-04T10:36:16.847Z,2.83
2018-09-04T10:38:44.971Z,3.27
2018-09-04T10:41:14.416Z,3.87
2018-09-04T10:43:42.634Z,3.33
2018-09-04T10:46:15.768Z,1.80
2018-09-04T10:48:43.979Z,3.20
2018-09-04T10:51:13.269Z,2.67
2018-09-04T10:53:41.513Z,3.43
2018-09-04T10:56:09.703Z,2.90
2018-09-04T10:58:38.007Z,2.53
2018-09-04T11:01:06.320Z,3.23
2018-09-04T11:03:34.602Z,3.90
2018-09-04T11:06:03.839Z,3.07
2018-09-04T11:08:32.955Z,2.77
2018-09-04T11:11:01.260Z,3.17
2018-09-04T11:13:29.474Z,3.20
2018-09-04T11:15:57.735Z,3.07
2018-09-04T11:18:25.980Z,2.67
2018-09-04T11:20:56.282Z,3.20
2018-09-04T11:23:24.518Z,2.83
2018-09-04T11:25:52.740Z,3.30
2018-09-04T11:28:23.015Z,2.80
2018-09-04T11:30:51.252Z,2.60
2018-09-04T11:33:19.572Z,2.90
2018-09-04T11:35:47.841Z,2.80
2018-09-04T11:38:16.071Z,3.23
2018-09-04T11:40:45.450Z,2.57
2018-09-04T11:43:13.605Z,2.33
2018-09-04T11:45:41.939Z,2.30
2018-09-04T11:48:14.440Z,2.77
2018-09-04T11:50:42.965Z,2.47
2018-09-04T11:53:11.561Z,2.53
2018-09-04T11:55:39.956Z,2.27
2018-09-04T11:58:08.239Z,2.40
2018-09-04T12:00:39.338Z,2.27
2018-09-04T12:03:09.826Z,1.83
2018-09-04T12:05:38.082Z,2.33
2018-09-04T12:08:06.291Z,2.77
2018-09-04T12:10:34.516Z,2.60
2018-09-04T12:13:02.759Z,1.77
2018-09-04T12:15:30.970Z,2.60
2018-09-04T12:17:59.323Z,2.93
2018-09-04T12:20:51.991Z,2.50
2018-09-04T12:23:20.268Z,1.73
2018-09-04T12:25:49.988Z,2.20
2018-09-04T12:28:18.188Z,1.70
2018-09-04T12:30:46.457Z,2.00
2018-09-04T12:33:14.697Z,3.00
2018-09-04T12:35:42.883Z,3.10
2018-09-04T12:38:12.627Z,3.20
2018-09-04T12:40:42.036Z,3.13
2018-09-04T12:43:10.249Z,3.50
2018-09-04T12:45:44.091Z,2.63
2018-09-04T12:48:16.614Z,2.60
2018-09-04T12:50:44.869Z,3.30
2018-09-04T12:53:13.112Z,3.20
2018-09-04T12:55:41.332Z,3.17
2018-09-04T12:58:09.559Z,2.93
2018-09-04T13:00:37.756Z,2.23
2018-09-04T13:03:06.006Z,2.70
2018-09-04T13:05:34.200Z,2.80
2018-09-04T13:08:02.448Z,2.37
2018-09-04T13:10:30.718Z,2.93
2018-09-04T13:12:58.955Z,2.80
2018-09-04T13:15:27.186Z,2.57
2018-09-04T13:17:55.505Z,3.23
2018-09-04T13:20:23.783Z,3.13
2018-09-04T13:22:52.001Z,2.87
2018-09-04T13:25:20.223Z,3.03
2018-09-04T13:27:48.465Z,2.37
2018-09-04T13:30:17.609Z,3.37
2018-09-04T13:32:46.083Z,3.13
2018-09-04T13:35:14.355Z,2.53
2018-09-04T13:37:42.570Z,3.07
2018-09-04T13:40:10.905Z,2.13
2018-09-04T13:42:39.707Z,2.83
2018-09-04T13:45:09.803Z,2.50
2018-09-04T13:47:37.987Z,2.47
2018-09-04T13:50:06.212Z,2.33
2018-09-04T13:52:34.432Z,2.47
2018-09-04T13:55:02.680Z,2.10
2018-09-04T13:57:31.099Z,2.73
2018-09-04T13:59:59.402Z,2.90
2018-09-04T14:02:27.687Z,2.40
2018-09-04T14:04:55.988Z,2.40
2018-09-04T14:07:24.289Z,3.40
2018-09-04T14:09:52.527Z,3.20
2018-09-04T14:12:21.380Z,1.97
2018-09-04T14:14:49.865Z,2.30
2018-09-04T14:17:19.567Z,2.47
2018-09-04T14:19:47.824Z,2.33
2018-09-04T14:22:16.529Z,2.37
2018-09-04T14:24:44.928Z,2.10
2018-09-04T14:27:13.198Z,2.10
2018-09-04T14:30:15.538Z,2.07
2018-09-04T14:32:09.752Z,2.53
2018-09-04T14:34:40.045Z,2.37
2018-09-04T14:37:08.376Z,2.57
2018-09-04T14:39:36.630Z,2.90
2018-09-04T14:42:04.936Z,2.30
2018-09-04T14:44:33.198Z,2.13
2018-09-04T14:47:01.422Z,2.47
2018-09-04T14:49:29.682Z,2.63
2018-09-04T14:51:57.955Z,2.93
2018-09-04T14:54:26.453Z,1.77
2018-09-04T14:56:54.843Z,2.23
2018-09-04T14:59:23.117Z,1.87
2018-09-04T15:01:51.388Z,2.23
2018-09-04T15:04:19.616Z,1.83
2018-09-04T15:06:47.840Z,2.23
2018-09-04T15:09:16.113Z,2.20
2018-09-04T15:11:44.313Z,1.90
2018-09-04T15:14:12.553Z,2.13
2018-09-04T15:16:42.991Z,1.60
2018-09-04T15:19:11.188Z,2.30
2018-09-04T15:24:14.241Z,3.33
2018-09-04T15:26:42.450Z,1.77
2018-09-04T15:29:10.696Z,1.97
2018-09-04T15:31:38.938Z,2.33
2018-09-04T15:34:07.230Z,3.13
2018-09-04T15:36:35.467Z,2.47
2018-09-04T15:39:05.111Z,3.47
2018-09-04T15:41:33.356Z,2.40
2018-09-04T15:44:01.608Z,3.27
2018-09-04T15:46:29.915Z,2.83
2018-09-04T15:49:03.457Z,2.90
2018-09-04T15:51:31.689Z,2.53
2018-09-04T15:54:00.143Z,2.57
2018-09-04T15:56:28.430Z,2.57
2018-09-04T15:58:56.720Z,2.53
2018-09-04T16:01:24.976Z,3.47
2018-09-04T16:03:53.196Z,2.23
2018-09-04T16:06:21.519Z,2.20
2018-09-04T16:08:49.822Z,2.73
2018-09-04T16:11:18.036Z,2.90
2018-09-04T16:13:46.275Z,2.30
2018-09-04T16:16:14.468Z,2.83
2018-09-04T16:18:42.764Z,2.47
2018-09-04T16:21:11.002Z,2.10
2018-09-04T16:23:39.376Z,2.10
2018-09-04T16:26:07.570Z,2.43
2018-09-04T16:28:36.240Z,2.10
2018-09-04T16:31:04.579Z,2.03
2018-09-04T16:33:32.771Z,2.73
2018-09-04T16:36:01.079Z,2.33
2018-09-04T16:38:29.336Z,3.07
2018-09-04T16:40:57.710Z,2.30
2018-09-04T16:43:25.924Z,2.43
2018-09-04T16:45:54.181Z,2.47
2018-09-04T16:48:22.459Z,2.67
2018-09-04T16:50:50.656Z,2.57
2018-09-04T16:53:18.865Z,2.17
2018-09-04T16:55:47.100Z,2.40
2018-09-04T16:58:15.405Z,2.53
2018-09-04T17:00:43.634Z,2.03
2018-09-04T17:03:11.831Z,1.90
2018-09-04T17:05:40.025Z,2.23
2018-09-04T17:08:08.262Z,2.63
2018-09-04T17:10:36.492Z,2.20
2018-09-04T17:13:04.723Z,2.13
2018-09-04T17:15:34.069Z,2.63
2018-09-04T17:18:02.346Z,2.87
2018-09-04T17:20:30.578Z,3.23
2018-09-04T17:22:58.852Z,2.60
2018-09-04T17:25:27.388Z,2.90
2018-09-04T17:27:56.367Z,2.77
2018-09-04T17:30:24.623Z,2.83
2018-09-04T17:32:53.475Z,2.23
2018-09-04T17:35:22.281Z,2.77
2018-09-04T17:37:50.470Z,2.73
2018-09-04T17:40:18.675Z,2.40
2018-09-04T17:42:47.097Z,2.23
2018-09-04T17:45:15.285Z,2.37
2018-09-04T17:47:43.607Z,2.13
2018-09-04T17:50:11.744Z,2.00
2018-09-04T17:52:39.956Z,3.00
2018-09-04T17:55:08.209Z,2.57
2018-09-04T17:57:37.055Z,2.80
2018-09-04T18:00:05.739Z,2.73
2018-09-04T18:02:33.960Z,2.70
2018-09-04T18:05:02.245Z,2.63
2018-09-04T18:07:30.516Z,1.93
2018-09-04T18:09:58.827Z,2.63
2018-09-04T18:12:27.139Z,2.60
2018-09-04T18:14:55.377Z,2.70
2018-09-04T18:17:23.862Z,2.17
2018-09-04T18:19:52.120Z,2.73
2018-09-04T18:22:20.428Z,2.50
2018-09-04T18:24:48.619Z,2.60
2018-09-04T18:27:16.837Z,2.30
2018-09-04T18:29:45.043Z,2.50
2018-09-04T18:32:13.304Z,2.03
2018-09-04T18:34:41.531Z,2.30
2018-09-04T18:37:09.749Z,2.20
2018-09-04T18:39:37.941Z,2.33
2018-09-04T18:42:06.136Z,2.50
2018-09-04T18:44:34.338Z,2.70
2018-09-04T18:47:02.541Z,3.00
2018-09-04T18:49:30.853Z,2.27
2018-09-04T18:51:59.047Z,2.70
2018-09-04T18:54:27.286Z,3.03
2018-09-04T18:57:01.973Z,3.00
2018-09-04T18:59:30.301Z,2.60
2018-09-04T19:02:05.234Z,2.37
2018-09-04T19:04:33.519Z,3.17
2018-09-04T19:07:01.864Z,2.47
2018-09-04T19:09:30.151Z,2.80
2018-09-04T19:11:58.380Z,2.97
2018-09-04T19:14:27.047Z,2.43
2018-09-04T19:16:56.041Z,3.27
2018-09-04T19:19:24.240Z,2.90
2018-09-04T19:21:52.490Z,3.73
2018-09-04T19:24:20.661Z,3.27
2018-09-04T19:26:48.849Z,2.97
2018-09-04T19:29:17.056Z,3.23
2018-09-04T19:31:45.285Z,2.97
2018-09-04T19:34:13.509Z,2.53
2018-09-04T19:36:41.763Z,3.43
2018-09-04T19:39:10.611Z,2.63
2018-09-04T19:41:38.819Z,2.87
2018-09-04T19:44:07.024Z,2.37
2018-09-04T19:46:35.268Z,2.67
2018-09-04T19:49:03.633Z,3.60
2018-09-04T19:51:31.856Z,2.97
2018-09-04T19:54:00.114Z,2.63
2018-09-04T19:56:28.363Z,2.60
2018-09-04T19:58:56.680Z,3.17
2018-09-04T20:01:24.940Z,2.60
2018-09-04T20:03:53.119Z,2.80
2018-09-04T20:06:21.369Z,3.00
2018-09-04T20:08:49.559Z,3.07
2018-09-04T20:11:17.783Z,2.83
2018-09-04T20:13:46.020Z,3.23
2018-09-04T20:16:14.217Z,2.70
2018-09-04T20:18:42.419Z,3.27
2018-09-04T20:21:10.628Z,3.13
2018-09-04T20:23:38.876Z,2.30
2018-09-04T20:26:07.090Z,2.87
2018-09-04T20:28:35.283Z,3.43
2018-09-04T20:31:03.536Z,3.53
2018-09-04T20:33:31.757Z,3.03
2018-09-04T20:36:00.028Z,3.60
2018-09-04T20:38:28.199Z,3.10
2018-09-04T20:40:56.415Z,2.93
2018-09-04T20:43:24.591Z,3.87
2018-09-04T20:45:52.769Z,4.47
2018-09-04T20:48:21.067Z,3.60
2018-09-04T20:50:49.614Z,2.83
2018-09-04T20:53:17.955Z,3.27
2018-09-04T20:55:46.189Z,2.70
2018-09-04T20:58:25.744Z,3.17
2018-09-04T21:01:05.380Z,2.87
2018-09-04T21:03:45.044Z,3.23
2018-09-04T21:06:24.667Z,3.17
2018-09-04T21:09:02.463Z,3.50
2018-09-04T21:11:31.235Z,2.73
2018-09-04T21:13:59.452Z,2.87
2018-09-04T21:16:27.668Z,3.50
2018-09-04T21:18:55.884Z,2.90
2018-09-04T21:21:24.133Z,3.97
2018-09-04T21:23:52.291Z,3.07
2018-09-04T21:26:20.609Z,3.43
2018-09-04T21:28:48.865Z,3.63
2018-09-04T21:31:17.056Z,3.27
2018-09-04T21:33:45.237Z,3.37
2018-09-04T21:36:13.460Z,4.07
2018-09-04T21:38:41.664Z,4.03
2018-09-04T21:41:09.850Z,3.57
2018-09-04T21:43:38.056Z,3.53
2018-09-04T21:46:06.439Z,3.50
2018-09-04T21:48:34.697Z,3.90
2018-09-04T21:51:02.950Z,3.70
2018-09-04T21:53:31.255Z,3.77
2018-09-04T21:55:59.584Z,4.43
2018-09-04T21:58:30.851Z,3.30
2018-09-04T22:00:59.429Z,3.83
2018-09-04T22:03:27.618Z,3.10
2018-09-04T22:05:55.959Z,4.27
2018-09-04T22:08:24.168Z,3.30
2018-09-04T22:10:52.361Z,3.83
2018-09-04T22:13:20.626Z,3.87
2018-09-04T22:15:48.817Z,4.03
2018-09-04T22:18:17.012Z,3.77
2018-09-04T22:20:45.296Z,4.20
2018-09-04T22:23:13.559Z,3.53
2018-09-04T22:25:41.744Z,3.63
2018-09-04T22:28:10.008Z,3.33
2018-09-04T22:30:38.207Z,3.23
2018-09-04T22:33:06.516Z,4.20
2018-09-04T22:35:34.715Z,3.60
2018-09-04T22:38:02.995Z,3.20
2018-09-04T22:40:31.190Z,3.00
2018-09-04T22:42:59.429Z,4.37
2018-09-04T22:45:27.647Z,3.97
2018-09-04T22:47:58.040Z,3.63
2018-09-04T22:50:31.575Z,3.77
2018-09-04T22:52:59.787Z,2.97
2018-09-04T22:55:27.978Z,3.30
2018-09-04T22:57:56.206Z,3.97
2018-09-04T23:00:30.841Z,3.30
2018-09-04T23:02:59.012Z,3.50
2018-09-04T23:05:27.199Z,4.20
2018-09-04T23:07:55.468Z,3.43
2018-09-04T23:10:23.697Z,3.53
2018-09-04T23:12:51.956Z,2.80
2018-09-04T23:15:20.259Z,3.70
2018-09-04T23:17:48.456Z,3.93
2018-09-04T23:20:16.631Z,2.67
2018-09-04T23:22:44.907Z,3.03
2018-09-04T23:25:13.094Z,3.37
2018-09-04T23:27:41.271Z,4.40
2018-09-04T23:30:09.446Z,3.57
2018-09-04T23:32:38.552Z,4.23
2018-09-04T23:35:06.919Z,3.10
2018-09-04T23:37:35.132Z,2.93
2018-09-04T23:40:03.439Z,3.73
2018-09-04T23:42:32.507Z,4.13
2018-09-04T23:45:01.715Z,3.27
2018-09-04T23:47:29.902Z,4.13
2018-09-04T23:49:58.089Z,4.43
2018-09-04T23:52:26.280Z,3.60
2018-09-04T23:54:54.523Z,3.40
2018-09-04T23:57:22.707Z,4.30
2018-09-04T23:59:50.908Z,4.73
